createdAt,value
2017-10-23T00:01:01.055Z,0
2017-10-23T00:02:02.452Z,0
2017-10-23T00:03:03.847Z,0
2017-10-23T00:04:05.240Z,0
2017-10-23T00:05:06.639Z,0
2017-10-23T00:06:08.036Z,0
2017-10-23T00:07:09.434Z,0
2017-10-23T00:08:10.831Z,0
2017-10-23T00:09:12.225Z,0
2017-10-23T00:10:13.669Z,0
2017-10-23T00:11:15.064Z,0
2017-10-23T00:12:16.456Z,0
2017-10-23T00:13:17.855Z,0
2017-10-23T00:14:19.251Z,0
2017-10-23T00:15:20.648Z,0
2017-10-23T00:16:22.043Z,0
2017-10-23T00:17:23.439Z,0
2017-10-23T00:18:24.833Z,0
2017-10-23T00:19:26.227Z,0
2017-10-23T00:20:27.622Z,0
2017-10-23T00:21:29.017Z,0
2017-10-23T00:22:30.415Z,0
2017-10-23T00:23:31.812Z,0
2017-10-23T00:24:33.207Z,0
2017-10-23T00:25:34.604Z,0
2017-10-23T00:26:35.996Z,0
2017-10-23T00:27:37.463Z,0
2017-10-23T00:28:38.863Z,0
2017-10-23T00:29:40.261Z,0
2017-10-23T00:30:41.661Z,0
2017-10-23T00:31:43.055Z,0
2017-10-23T00:32:44.447Z,0
2017-10-23T00:33:45.844Z,0
2017-10-23T00:34:47.242Z,0
2017-10-23T00:35:48.638Z,0
2017-10-23T00:36:50.038Z,0
2017-10-23T00:37:51.436Z,0
2017-10-23T00:38:52.833Z,0
2017-10-23T00:39:54.222Z,0
2017-10-23T00:40:55.616Z,0
2017-10-23T00:41:57.013Z,0
2017-10-23T00:42:58.407Z,0
2017-10-23T00:43:59.807Z,0
2017-10-23T00:45:01.202Z,0
2017-10-23T00:46:02.597Z,0
2017-10-23T00:47:03.996Z,0
2017-10-23T00:48:05.390Z,0
2017-10-23T00:49:06.787Z,0
2017-10-23T00:50:08.184Z,0
2017-10-23T00:51:09.579Z,0
2017-10-23T00:52:10.975Z,0
2017-10-23T00:53:12.369Z,0
2017-10-23T00:54:13.764Z,0
2017-10-23T00:55:15.162Z,0
2017-10-23T00:56:16.557Z,0
2017-10-23T00:57:17.954Z,0
2017-10-23T00:58:19.351Z,0
2017-10-23T00:59:20.757Z,0
2017-10-23T01:00:22.150Z,0
2017-10-23T01:01:23.560Z,0
2017-10-23T01:02:24.948Z,0
2017-10-23T01:03:26.345Z,0
2017-10-23T01:04:27.740Z,0
2017-10-23T01:05:29.136Z,0
2017-10-23T01:06:30.534Z,0
2017-10-23T01:07:31.926Z,0
2017-10-23T01:08:33.324Z,0
2017-10-23T01:09:34.721Z,0
2017-10-23T01:10:36.116Z,0
2017-10-23T01:11:37.520Z,0
2017-10-23T01:12:38.910Z,0
2017-10-23T01:13:40.304Z,0
2017-10-23T01:14:41.695Z,0
2017-10-23T01:15:43.093Z,0
2017-10-23T01:16:44.494Z,0
2017-10-23T01:17:45.881Z,0
2017-10-23T01:18:47.276Z,0
2017-10-23T01:19:48.674Z,0
2017-10-23T01:20:50.069Z,0
2017-10-23T01:21:51.464Z,0
2017-10-23T01:22:52.856Z,0
2017-10-23T01:23:54.253Z,0
2017-10-23T01:24:55.647Z,0
2017-10-23T01:25:57.046Z,0
2017-10-23T01:26:58.443Z,0
2017-10-23T01:27:59.841Z,0
2017-10-23T01:29:01.232Z,0
2017-10-23T01:30:02.629Z,0
2017-10-23T01:31:04.023Z,0
2017-10-23T01:32:05.419Z,0
2017-10-23T01:33:06.818Z,0
2017-10-23T01:34:08.217Z,0
2017-10-23T01:35:09.614Z,0
2017-10-23T01:36:11.008Z,0
2017-10-23T01:37:12.404Z,0
2017-10-23T01:38:13.800Z,0
2017-10-23T01:39:15.208Z,0
2017-10-23T01:40:16.594Z,0
2017-10-23T01:41:17.990Z,0
2017-10-23T01:42:19.393Z,0
2017-10-23T01:43:20.788Z,0
2017-10-23T01:44:22.180Z,0
2017-10-23T01:45:23.575Z,0
2017-10-23T01:46:24.972Z,0
2017-10-23T01:47:26.366Z,0
2017-10-23T01:48:27.761Z,0
2017-10-23T01:49:29.154Z,0
2017-10-23T01:50:30.552Z,0
2017-10-23T01:51:31.969Z,0
2017-10-23T01:52:33.366Z,0
2017-10-23T01:53:34.760Z,0
2017-10-23T01:54:36.157Z,0
2017-10-23T01:55:37.553Z,0
2017-10-23T01:56:38.950Z,0
2017-10-23T01:57:40.352Z,0
2017-10-23T01:58:41.743Z,0
2017-10-23T01:59:43.136Z,0
2017-10-23T02:00:44.530Z,0
2017-10-23T02:01:45.925Z,0
2017-10-23T02:02:47.322Z,0
2017-10-23T02:03:48.746Z,0
2017-10-23T02:04:50.142Z,0
2017-10-23T02:05:51.541Z,0
2017-10-23T02:06:52.933Z,0
2017-10-23T02:07:54.331Z,0
2017-10-23T02:08:55.725Z,0
2017-10-23T02:09:57.120Z,0
2017-10-23T02:10:58.518Z,0
2017-10-23T02:11:59.915Z,0
2017-10-23T02:13:01.312Z,0
2017-10-23T02:14:02.709Z,0
2017-10-23T02:15:04.104Z,0
2017-10-23T02:16:05.503Z,0
2017-10-23T02:17:06.900Z,0
2017-10-23T02:18:08.296Z,0
2017-10-23T02:19:09.692Z,0
2017-10-23T02:20:11.088Z,0
2017-10-23T02:21:12.482Z,0
2017-10-23T02:22:13.879Z,0
2017-10-23T02:23:15.273Z,0
2017-10-23T02:24:16.667Z,0
2017-10-23T02:25:18.072Z,0
2017-10-23T02:26:19.463Z,0
2017-10-23T02:27:20.859Z,0
2017-10-23T02:28:22.253Z,0
2017-10-23T02:29:23.649Z,0
2017-10-23T02:30:25.045Z,0
2017-10-23T02:31:26.444Z,0
2017-10-23T02:32:27.839Z,0
2017-10-23T02:33:29.232Z,0
2017-10-23T02:34:30.626Z,0
2017-10-23T02:35:32.021Z,0
2017-10-23T02:36:33.419Z,0
2017-10-23T02:37:34.814Z,0
2017-10-23T02:38:36.207Z,0
2017-10-23T02:39:37.606Z,0
2017-10-23T02:40:39.000Z,0
2017-10-23T02:41:40.399Z,0
2017-10-23T02:42:41.795Z,0
2017-10-23T02:43:43.191Z,0
2017-10-23T02:44:44.590Z,0
2017-10-23T02:45:45.981Z,0
2017-10-23T02:46:47.378Z,0
2017-10-23T02:47:48.771Z,0
2017-10-23T02:48:50.169Z,0
2017-10-23T02:49:51.564Z,0
2017-10-23T02:50:52.962Z,0
2017-10-23T02:51:54.354Z,0
2017-10-23T02:52:55.753Z,0
2017-10-23T02:53:57.152Z,0
2017-10-23T02:54:58.547Z,0
2017-10-23T02:55:59.941Z,0
2017-10-23T02:57:01.338Z,0
2017-10-23T02:58:02.735Z,0
2017-10-23T02:59:04.134Z,0
2017-10-23T03:00:05.534Z,0
2017-10-23T03:01:06.931Z,0
2017-10-23T03:02:08.324Z,0
2017-10-23T03:03:09.718Z,0
2017-10-23T03:04:11.116Z,0
2017-10-23T03:05:12.512Z,0
2017-10-23T03:06:13.905Z,0
2017-10-23T03:07:15.301Z,0
2017-10-23T03:08:16.698Z,0
2017-10-23T03:09:18.091Z,0
2017-10-23T03:10:19.488Z,0
2017-10-23T03:11:20.885Z,0
2017-10-23T03:12:22.280Z,0
2017-10-23T03:13:23.677Z,0
2017-10-23T03:14:25.070Z,0
2017-10-23T03:15:26.465Z,0
2017-10-23T03:16:27.861Z,0
2017-10-23T03:17:29.256Z,0
2017-10-23T03:18:30.649Z,0
2017-10-23T03:19:32.045Z,0
2017-10-23T03:20:33.461Z,0
2017-10-23T03:21:34.842Z,0
2017-10-23T03:22:36.240Z,0
2017-10-23T03:23:37.637Z,0
2017-10-23T03:24:39.031Z,0
2017-10-23T03:25:40.422Z,0
2017-10-23T03:26:41.819Z,0
2017-10-23T03:27:43.216Z,0
2017-10-23T03:28:44.613Z,0
2017-10-23T03:29:46.007Z,0
2017-10-23T03:30:47.402Z,0
2017-10-23T03:31:48.795Z,0
2017-10-23T03:32:50.257Z,0
2017-10-23T03:33:51.656Z,0
2017-10-23T03:34:53.051Z,0
2017-10-23T03:35:54.448Z,0
2017-10-23T03:36:55.844Z,0
2017-10-23T03:37:57.240Z,0
2017-10-23T03:38:58.635Z,0
2017-10-23T03:40:00.030Z,0
2017-10-23T03:41:01.429Z,0
2017-10-23T03:42:02.822Z,0
2017-10-23T03:43:04.223Z,0
2017-10-23T03:44:05.619Z,0
2017-10-23T03:45:07.013Z,0
2017-10-23T03:46:08.411Z,0
2017-10-23T03:47:09.834Z,0
2017-10-23T03:48:11.203Z,0
2017-10-23T03:49:12.601Z,0
2017-10-23T03:50:13.999Z,0
2017-10-23T03:51:15.392Z,0
2017-10-23T03:52:16.791Z,0
2017-10-23T03:53:18.189Z,0
2017-10-23T03:54:19.584Z,0
2017-10-23T03:55:20.980Z,0
2017-10-23T03:56:22.377Z,0
2017-10-23T03:57:23.771Z,0
2017-10-23T03:58:25.167Z,0
2017-10-23T03:59:26.565Z,0
2017-10-23T04:00:27.957Z,0
2017-10-23T04:01:29.355Z,0
2017-10-23T04:02:30.751Z,0
2017-10-23T04:03:32.148Z,0
2017-10-23T04:04:33.544Z,0
2017-10-23T04:05:34.938Z,0
2017-10-23T04:06:36.332Z,0
2017-10-23T04:07:37.731Z,0
2017-10-23T04:08:39.126Z,0
2017-10-23T04:09:40.525Z,0
2017-10-23T04:10:41.921Z,0
2017-10-23T04:11:43.316Z,0
2017-10-23T04:12:44.713Z,0
2017-10-23T04:13:46.112Z,0
2017-10-23T04:14:47.507Z,0
2017-10-23T04:15:48.902Z,0
2017-10-23T04:16:50.301Z,0
2017-10-23T04:17:51.697Z,0
2017-10-23T04:18:53.097Z,0
2017-10-23T04:19:54.490Z,0
2017-10-23T04:20:55.886Z,0
2017-10-23T04:21:57.283Z,0
2017-10-23T04:22:58.680Z,0
2017-10-23T04:24:00.078Z,0
2017-10-23T04:25:01.473Z,0
2017-10-23T04:26:02.875Z,0
2017-10-23T04:27:04.282Z,0
2017-10-23T04:28:05.673Z,0
2017-10-23T04:29:07.505Z,0
2017-10-23T04:30:09.616Z,0
2017-10-23T04:31:11.599Z,0
2017-10-23T04:32:14.072Z,0
2017-10-23T04:33:16.680Z,0
2017-10-23T04:34:19.357Z,0
2017-10-23T04:35:21.318Z,0
2017-10-23T04:36:23.175Z,0
2017-10-23T04:37:24.563Z,0
2017-10-23T04:38:25.961Z,0
2017-10-23T04:39:27.356Z,0
2017-10-23T04:40:28.751Z,0
2017-10-23T04:41:30.149Z,0
2017-10-23T04:42:31.540Z,0
2017-10-23T04:43:32.936Z,0
2017-10-23T04:44:34.333Z,0
2017-10-23T04:45:35.836Z,0
2017-10-23T04:46:37.227Z,0
2017-10-23T04:47:38.625Z,0
2017-10-23T04:48:40.021Z,0
2017-10-23T04:49:41.415Z,0
2017-10-23T04:50:42.810Z,0
2017-10-23T04:51:44.272Z,0
2017-10-23T04:52:45.664Z,0
2017-10-23T04:53:47.057Z,0
2017-10-23T04:54:48.456Z,0
2017-10-23T04:55:49.854Z,0
2017-10-23T04:56:51.245Z,0
2017-10-23T04:57:52.641Z,0
2017-10-23T04:58:54.034Z,0
2017-10-23T04:59:55.429Z,0
2017-10-23T05:00:56.825Z,0
2017-10-23T05:01:58.222Z,0
2017-10-23T05:02:59.620Z,0
2017-10-23T05:04:01.012Z,0
2017-10-23T05:05:02.423Z,0
2017-10-23T05:06:03.811Z,0
2017-10-23T05:07:05.205Z,0
2017-10-23T05:08:06.602Z,0
2017-10-23T05:09:08.002Z,0
2017-10-23T05:10:09.405Z,0
2017-10-23T05:11:10.799Z,0
2017-10-23T05:12:12.194Z,0
2017-10-23T05:13:13.588Z,0
2017-10-23T05:14:14.985Z,0
2017-10-23T05:15:16.379Z,0
2017-10-23T05:16:17.779Z,0
2017-10-23T05:17:19.174Z,0
2017-10-23T05:18:20.567Z,0
2017-10-23T05:19:21.970Z,0
2017-10-23T05:20:23.365Z,0
2017-10-23T05:21:24.760Z,0
2017-10-23T05:22:26.158Z,0
2017-10-23T05:23:27.556Z,0
2017-10-23T05:24:28.951Z,0
2017-10-23T05:25:30.343Z,0
2017-10-23T05:26:31.737Z,0
2017-10-23T05:27:33.131Z,0
2017-10-23T05:28:34.533Z,0
2017-10-23T05:29:35.924Z,0
2017-10-23T05:30:37.323Z,0
2017-10-23T05:31:38.718Z,0
2017-10-23T05:32:40.113Z,0
2017-10-23T05:33:41.509Z,0
2017-10-23T05:34:42.902Z,0
2017-10-23T05:35:44.298Z,0
2017-10-23T05:36:45.697Z,0
2017-10-23T05:37:47.095Z,0
2017-10-23T05:38:48.495Z,0
2017-10-23T05:39:49.891Z,0
2017-10-23T05:40:51.288Z,0
2017-10-23T05:41:52.682Z,0
2017-10-23T05:42:54.100Z,0
2017-10-23T05:43:55.495Z,0
2017-10-23T05:44:56.896Z,0
2017-10-23T05:45:58.291Z,0
2017-10-23T05:46:59.686Z,0
2017-10-23T05:48:01.080Z,4
2017-10-23T05:49:02.473Z,0
2017-10-23T05:50:03.868Z,0
2017-10-23T05:51:05.263Z,4
2017-10-23T05:52:06.666Z,4
2017-10-23T05:53:08.060Z,0
2017-10-23T05:54:09.460Z,4
2017-10-23T05:55:10.853Z,4
2017-10-23T05:56:12.249Z,4
2017-10-23T05:57:13.644Z,8
2017-10-23T05:58:15.040Z,8
2017-10-23T05:59:16.437Z,8
2017-10-23T06:00:17.837Z,12
2017-10-23T06:01:19.237Z,16
2017-10-23T06:02:20.639Z,24
2017-10-23T06:03:22.033Z,24
2017-10-23T06:04:23.431Z,24
2017-10-23T06:05:24.828Z,32
2017-10-23T06:06:26.228Z,28
2017-10-23T06:07:27.631Z,32
2017-10-23T06:08:29.023Z,32
2017-10-23T06:09:30.419Z,36
2017-10-23T06:10:31.812Z,40
2017-10-23T06:11:33.207Z,52
2017-10-23T06:12:34.607Z,60
2017-10-23T06:13:36.002Z,64
2017-10-23T06:14:37.408Z,72
2017-10-23T06:15:38.795Z,72
2017-10-23T06:16:40.189Z,72
2017-10-23T06:17:41.588Z,84
2017-10-23T06:18:42.984Z,88
2017-10-23T06:19:44.380Z,92
2017-10-23T06:20:45.780Z,104
2017-10-23T06:21:47.180Z,108
2017-10-23T06:22:48.576Z,112
2017-10-23T06:23:49.976Z,148
2017-10-23T06:24:51.373Z,172
2017-10-23T06:25:52.775Z,192
2017-10-23T06:26:54.171Z,204
2017-10-23T06:27:55.572Z,184
2017-10-23T06:28:56.972Z,164
2017-10-23T06:29:58.373Z,140
2017-10-23T06:30:59.767Z,128
2017-10-23T06:32:01.162Z,144
2017-10-23T06:33:02.560Z,172
2017-10-23T06:34:03.956Z,172
2017-10-23T06:35:05.359Z,180
2017-10-23T06:36:06.760Z,180
2017-10-23T06:37:08.156Z,184
2017-10-23T06:38:09.555Z,184
2017-10-23T06:39:10.958Z,192
2017-10-23T06:40:12.346Z,200
2017-10-23T06:41:13.743Z,212
2017-10-23T06:42:15.142Z,216
2017-10-23T06:43:16.543Z,212
2017-10-23T06:44:17.939Z,208
2017-10-23T06:45:19.339Z,224
2017-10-23T06:46:20.736Z,240
2017-10-23T06:47:22.141Z,248
2017-10-23T06:48:23.541Z,268
2017-10-23T06:49:24.943Z,276
2017-10-23T06:50:26.347Z,280
2017-10-23T06:51:27.736Z,296
2017-10-23T06:52:29.135Z,308
2017-10-23T06:53:30.533Z,332
2017-10-23T06:54:31.958Z,364
2017-10-23T06:55:33.357Z,412
2017-10-23T06:56:34.759Z,428
2017-10-23T06:57:36.157Z,448
2017-10-23T06:58:37.555Z,436
2017-10-23T06:59:38.957Z,400
2017-10-23T07:00:40.354Z,404
2017-10-23T07:01:41.754Z,412
2017-10-23T07:02:43.151Z,440
2017-10-23T07:03:44.550Z,436
2017-10-23T07:04:45.950Z,456
2017-10-23T07:05:47.346Z,484
2017-10-23T07:06:48.744Z,536
2017-10-23T07:07:50.143Z,536
2017-10-23T07:08:51.502Z,548
2017-10-23T07:09:52.901Z,584
2017-10-23T07:10:54.298Z,624
2017-10-23T07:11:55.698Z,640
2017-10-23T07:12:57.096Z,680
2017-10-23T07:13:58.492Z,672
2017-10-23T07:14:59.898Z,688
2017-10-23T07:16:01.286Z,700
2017-10-23T07:17:02.687Z,740
2017-10-23T07:18:04.089Z,748
2017-10-23T07:19:05.488Z,720
2017-10-23T07:20:06.887Z,680
2017-10-23T07:21:08.288Z,668
2017-10-23T07:22:09.686Z,668
2017-10-23T07:23:11.085Z,676
2017-10-23T07:24:12.487Z,692
2017-10-23T07:25:13.889Z,752
2017-10-23T07:26:15.288Z,772
2017-10-23T07:27:16.686Z,832
2017-10-23T07:28:18.086Z,856
2017-10-23T07:29:19.496Z,924
2017-10-23T07:30:20.890Z,904
2017-10-23T07:31:22.288Z,892
2017-10-23T07:32:23.687Z,852
2017-10-23T07:33:25.095Z,880
2017-10-23T07:34:26.486Z,892
2017-10-23T07:35:27.885Z,920
2017-10-23T07:36:29.315Z,996
2017-10-23T07:37:30.721Z,1060
2017-10-23T07:38:32.119Z,1096
2017-10-23T07:39:33.521Z,1144
2017-10-23T07:40:34.921Z,1172
2017-10-23T07:41:36.320Z,1252
2017-10-23T07:42:37.719Z,1256
2017-10-23T07:43:39.126Z,1260
2017-10-23T07:44:40.523Z,1208
2017-10-23T07:45:41.927Z,1392
2017-10-23T07:46:43.327Z,1484
2017-10-23T07:47:44.726Z,1636
2017-10-23T07:48:46.127Z,1704
2017-10-23T07:49:47.529Z,1848
2017-10-23T07:50:48.930Z,1836
2017-10-23T07:51:50.327Z,1968
2017-10-23T07:52:51.725Z,1924
2017-10-23T07:53:53.131Z,1924
2017-10-23T07:54:54.533Z,1888
2017-10-23T07:55:55.931Z,1776
2017-10-23T07:56:57.347Z,1652
2017-10-23T07:57:58.746Z,1664
2017-10-23T07:59:00.147Z,1756
2017-10-23T08:00:01.553Z,1836
2017-10-23T08:01:02.952Z,1868
2017-10-23T08:02:04.357Z,1812
2017-10-23T08:03:05.754Z,1788
2017-10-23T08:04:07.152Z,1744
2017-10-23T08:05:08.553Z,1516
2017-10-23T08:06:09.958Z,1300
2017-10-23T08:07:11.361Z,1216
2017-10-23T08:08:12.766Z,1236
2017-10-23T08:09:14.171Z,1152
2017-10-23T08:10:15.570Z,1060
2017-10-23T08:11:16.969Z,1148
2017-10-23T08:12:18.372Z,1284
2017-10-23T08:13:19.768Z,1348
2017-10-23T08:14:21.170Z,1244
2017-10-23T08:15:22.571Z,1228
2017-10-23T08:16:23.974Z,1064
2017-10-23T08:17:25.371Z,804
2017-10-23T08:18:26.770Z,732
2017-10-23T08:19:28.171Z,724
2017-10-23T08:20:29.573Z,760
2017-10-23T08:21:30.977Z,788
2017-10-23T08:22:32.372Z,716
2017-10-23T08:23:33.774Z,676
2017-10-23T08:24:35.169Z,660
2017-10-23T08:25:36.570Z,760
2017-10-23T08:26:38.020Z,856
2017-10-23T08:27:39.417Z,1136
2017-10-23T08:28:40.825Z,1236
2017-10-23T08:29:42.226Z,1212
2017-10-23T08:30:43.630Z,1184
2017-10-23T08:31:45.030Z,1108
2017-10-23T08:32:46.429Z,856
2017-10-23T08:33:47.826Z,844
2017-10-23T08:34:49.230Z,944
2017-10-23T08:35:50.631Z,1028
2017-10-23T08:36:52.039Z,1124
2017-10-23T08:37:53.442Z,1264
2017-10-23T08:38:54.840Z,1288
2017-10-23T08:39:56.237Z,1292
2017-10-23T08:40:57.640Z,1288
2017-10-23T08:41:59.039Z,1256
2017-10-23T08:43:00.438Z,1264
2017-10-23T08:44:01.841Z,1236
2017-10-23T08:45:03.242Z,1324
2017-10-23T08:46:04.642Z,1404
2017-10-23T08:47:06.046Z,1496
2017-10-23T08:48:07.445Z,1364
2017-10-23T08:49:08.843Z,1360
2017-10-23T08:50:10.246Z,1396
2017-10-23T08:51:11.648Z,1444
2017-10-23T08:52:13.051Z,1496
2017-10-23T08:53:14.449Z,1408
2017-10-23T08:54:15.846Z,1256
2017-10-23T08:55:17.247Z,1244
2017-10-23T08:56:18.648Z,1408
2017-10-23T08:57:20.052Z,1556
2017-10-23T08:58:21.454Z,1720
2017-10-23T08:59:22.854Z,1768
2017-10-23T09:00:24.254Z,1624
2017-10-23T09:01:25.655Z,1528
2017-10-23T09:02:27.056Z,2012
2017-10-23T09:03:28.458Z,2416
2017-10-23T09:04:29.861Z,1980
2017-10-23T09:05:31.261Z,1720
2017-10-23T09:06:32.663Z,1708
2017-10-23T09:07:34.061Z,1960
2017-10-23T09:08:35.462Z,2136
2017-10-23T09:09:36.862Z,2164
2017-10-23T09:10:38.261Z,2140
2017-10-23T09:11:39.663Z,1860
2017-10-23T09:12:41.065Z,1620
2017-10-23T09:13:42.463Z,1448
2017-10-23T09:14:43.864Z,1412
2017-10-23T09:15:45.263Z,1588
2017-10-23T09:16:46.668Z,2568
2017-10-23T09:17:48.067Z,4092
2017-10-23T09:18:49.468Z,5300
2017-10-23T09:19:50.873Z,8132
2017-10-23T09:20:52.290Z,4968
2017-10-23T09:21:53.687Z,3496
2017-10-23T09:22:55.088Z,2412
2017-10-23T09:23:56.497Z,1936
2017-10-23T09:24:57.898Z,2256
2017-10-23T09:25:59.326Z,1840
2017-10-23T09:27:00.707Z,2208
2017-10-23T09:28:02.111Z,2416
2017-10-23T09:29:03.518Z,3048
2017-10-23T09:30:04.918Z,4424
2017-10-23T09:31:06.321Z,6804
2017-10-23T09:32:07.722Z,3784
2017-10-23T09:33:09.127Z,5100
2017-10-23T09:34:10.530Z,14052
2017-10-23T09:35:11.936Z,9320
2017-10-23T09:36:13.337Z,6160
2017-10-23T09:37:14.737Z,3824
2017-10-23T09:38:16.137Z,4460
2017-10-23T09:39:17.539Z,5148
2017-10-23T09:40:18.941Z,7768
2017-10-23T09:41:20.347Z,33184
2017-10-23T09:42:21.755Z,4424
2017-10-23T09:43:23.157Z,3220
2017-10-23T09:44:24.559Z,2904
2017-10-23T09:45:25.963Z,3056
2017-10-23T09:46:27.366Z,3316
2017-10-23T09:47:28.769Z,4356
2017-10-23T09:48:30.172Z,6744
2017-10-23T09:49:31.580Z,2952
2017-10-23T09:50:32.985Z,5420
2017-10-23T09:51:34.385Z,24992
2017-10-23T09:52:35.791Z,17248
2017-10-23T09:53:37.195Z,11312
2017-10-23T09:54:38.622Z,6324
2017-10-23T09:55:40.030Z,6168
2017-10-23T09:56:41.435Z,4292
2017-10-23T09:57:42.837Z,7572
2017-10-23T09:58:44.241Z,4060
2017-10-23T09:59:45.643Z,21216
2017-10-23T10:00:47.048Z,4964
2017-10-23T10:01:48.449Z,5604
2017-10-23T10:02:49.857Z,7408
2017-10-23T10:03:51.262Z,5692
2017-10-23T10:04:52.668Z,4448
2017-10-23T10:05:54.112Z,7260
2017-10-23T10:06:55.519Z,8764
2017-10-23T10:07:56.927Z,4156
2017-10-23T10:08:58.332Z,4280
2017-10-23T10:09:59.738Z,3492
2017-10-23T10:11:01.151Z,3888
2017-10-23T10:12:02.556Z,3332
2017-10-23T10:13:03.960Z,3932
2017-10-23T10:14:05.366Z,4156
2017-10-23T10:15:06.774Z,4512
2017-10-23T10:16:08.180Z,4008
2017-10-23T10:17:09.586Z,3956
2017-10-23T10:18:10.990Z,6864
2017-10-23T10:19:12.398Z,5232
2017-10-23T10:20:13.803Z,4696
2017-10-23T10:21:15.219Z,6036
2017-10-23T10:22:16.617Z,12012
2017-10-23T10:23:18.021Z,4512
2017-10-23T10:24:19.427Z,4608
2017-10-23T10:25:20.833Z,5280
2017-10-23T10:26:22.238Z,5428
2017-10-23T10:27:23.660Z,3996
2017-10-23T10:28:25.064Z,4920
2017-10-23T10:29:26.469Z,5772
2017-10-23T10:30:27.873Z,4400
2017-10-23T10:31:29.280Z,3884
2017-10-23T10:32:30.685Z,4076
2017-10-23T10:33:32.094Z,4164
2017-10-23T10:34:33.497Z,7524
2017-10-23T10:35:34.905Z,36864
2017-10-23T10:36:36.311Z,16768
2017-10-23T10:37:37.746Z,26112
2017-10-23T10:38:39.150Z,26560
2017-10-23T10:39:40.557Z,16960
2017-10-23T10:40:41.973Z,51840
2017-10-23T10:41:43.378Z,52288
2017-10-23T10:42:44.785Z,32960
2017-10-23T10:43:46.190Z,19232
2017-10-23T10:44:47.599Z,5216
2017-10-23T10:45:49.006Z,6124
2017-10-23T10:46:50.412Z,7028
2017-10-23T10:47:51.817Z,5424
2017-10-23T10:48:53.219Z,6048
2017-10-23T10:49:54.621Z,7468
2017-10-23T10:50:56.027Z,8848
2017-10-23T10:51:57.437Z,10188
2017-10-23T10:52:58.841Z,11100
2017-10-23T10:54:00.248Z,10984
2017-10-23T10:55:01.651Z,9388
2017-10-23T10:56:03.061Z,8920
2017-10-23T10:57:04.465Z,12300
2017-10-23T10:58:05.872Z,6680
2017-10-23T10:59:07.281Z,12688
2017-10-23T11:00:08.693Z,5748
2017-10-23T11:01:10.098Z,7816
2017-10-23T11:02:11.502Z,6468
2017-10-23T11:03:12.910Z,5956
2017-10-23T11:04:14.310Z,7424
2017-10-23T11:05:15.714Z,8304
2017-10-23T11:06:17.120Z,35392
2017-10-23T11:07:18.527Z,62048
2017-10-23T11:08:19.936Z,62880
2017-10-23T11:09:21.344Z,13724
2017-10-23T11:10:22.751Z,58976
2017-10-23T11:11:24.161Z,45984
2017-10-23T11:12:25.575Z,19680
2017-10-23T11:13:26.976Z,7932
2017-10-23T11:14:28.384Z,6124
2017-10-23T11:15:29.790Z,5004
2017-10-23T11:16:31.194Z,3368
2017-10-23T11:17:32.599Z,3384
2017-10-23T11:18:34.004Z,3748
2017-10-23T11:19:35.411Z,3812
2017-10-23T11:20:36.818Z,4344
2017-10-23T11:21:38.221Z,4088
2017-10-23T11:22:39.627Z,3628
2017-10-23T11:23:41.032Z,4912
2017-10-23T11:24:42.438Z,8908
2017-10-23T11:25:43.841Z,9132
2017-10-23T11:26:45.249Z,10996
2017-10-23T11:27:46.656Z,5836
2017-10-23T11:28:48.061Z,6948
2017-10-23T11:29:49.470Z,6856
2017-10-23T11:30:50.869Z,8048
2017-10-23T11:31:52.279Z,7996
2017-10-23T11:32:53.680Z,8164
2017-10-23T11:33:55.088Z,6644
2017-10-23T11:34:56.496Z,6044
2017-10-23T11:35:57.906Z,5788
2017-10-23T11:36:59.313Z,5120
2017-10-23T11:38:00.719Z,5212
2017-10-23T11:39:02.131Z,5052
2017-10-23T11:40:03.536Z,5404
2017-10-23T11:41:04.945Z,5356
2017-10-23T11:42:06.362Z,5000
2017-10-23T11:43:07.768Z,5152
2017-10-23T11:44:09.177Z,4568
2017-10-23T11:45:10.578Z,3984
2017-10-23T11:46:11.986Z,4104
2017-10-23T11:47:13.393Z,4304
2017-10-23T11:48:14.798Z,4100
2017-10-23T11:49:16.203Z,4040
2017-10-23T11:50:17.611Z,3632
2017-10-23T11:51:19.017Z,3516
2017-10-23T11:52:20.422Z,3316
2017-10-23T11:53:21.828Z,3192
2017-10-23T11:54:23.233Z,3036
2017-10-23T11:55:24.640Z,3240
2017-10-23T11:56:26.049Z,3140
2017-10-23T11:57:27.459Z,3012
2017-10-23T11:58:28.865Z,2948
2017-10-23T11:59:30.273Z,2996
2017-10-23T12:00:31.680Z,3008
2017-10-23T12:01:33.076Z,2992
2017-10-23T12:02:34.486Z,2984
2017-10-23T12:03:35.887Z,2984
2017-10-23T12:04:37.297Z,3124
2017-10-23T12:05:38.702Z,3276
2017-10-23T12:06:40.104Z,3348
2017-10-23T12:07:41.508Z,3308
2017-10-23T12:08:42.908Z,3268
2017-10-23T12:09:44.314Z,3128
2017-10-23T12:10:45.726Z,3000
2017-10-23T12:11:47.132Z,3176
2017-10-23T12:12:48.539Z,3448
2017-10-23T12:13:49.942Z,3632
2017-10-23T12:14:51.348Z,3524
2017-10-23T12:15:52.748Z,3728
2017-10-23T12:16:54.155Z,4020
2017-10-23T12:17:55.561Z,3976
2017-10-23T12:18:56.966Z,3692
2017-10-23T12:19:58.372Z,3656
2017-10-23T12:20:59.776Z,3604
2017-10-23T12:22:01.183Z,3504
2017-10-23T12:23:02.588Z,3540
2017-10-23T12:24:03.994Z,3976
2017-10-23T12:25:05.398Z,4168
2017-10-23T12:26:06.803Z,4820
2017-10-23T12:27:08.213Z,4396
2017-10-23T12:28:09.614Z,4140
2017-10-23T12:29:11.016Z,3948
2017-10-23T12:30:12.417Z,3704
2017-10-23T12:31:13.828Z,3740
2017-10-23T12:32:15.233Z,3540
2017-10-23T12:33:16.637Z,3292
2017-10-23T12:34:18.045Z,3220
2017-10-23T12:35:19.448Z,3124
2017-10-23T12:36:20.850Z,3236
2017-10-23T12:37:22.252Z,3576
2017-10-23T12:38:23.656Z,3468
2017-10-23T12:39:25.059Z,3272
2017-10-23T12:40:26.467Z,3272
2017-10-23T12:41:27.872Z,3232
2017-10-23T12:42:29.277Z,3184
2017-10-23T12:43:30.681Z,3228
2017-10-23T12:44:32.087Z,3288
2017-10-23T12:45:33.493Z,3308
2017-10-23T12:46:34.898Z,3280
2017-10-23T12:47:36.299Z,3128
2017-10-23T12:48:37.704Z,3148
2017-10-23T12:49:39.105Z,3316
2017-10-23T12:50:40.510Z,3348
2017-10-23T12:51:41.911Z,3408
2017-10-23T12:52:43.314Z,3092
2017-10-23T12:53:44.718Z,2732
2017-10-23T12:54:46.127Z,2588
2017-10-23T12:55:47.529Z,2612
2017-10-23T12:56:48.933Z,2712
2017-10-23T12:57:50.337Z,2800
2017-10-23T12:58:51.743Z,2888
2017-10-23T12:59:53.146Z,3008
2017-10-23T13:00:54.550Z,3060
2017-10-23T13:01:55.953Z,3276
2017-10-23T13:02:57.356Z,3492
2017-10-23T13:03:58.757Z,3744
2017-10-23T13:05:00.160Z,3876
2017-10-23T13:06:01.563Z,3748
2017-10-23T13:07:02.968Z,3816
2017-10-23T13:08:04.372Z,3780
2017-10-23T13:09:05.776Z,3540
2017-10-23T13:10:07.185Z,3420
2017-10-23T13:11:08.587Z,3012
2017-10-23T13:12:09.990Z,2800
2017-10-23T13:13:11.395Z,2800
2017-10-23T13:14:12.801Z,2824
2017-10-23T13:15:14.207Z,2784
2017-10-23T13:16:15.626Z,2760
2017-10-23T13:17:17.028Z,3012
2017-10-23T13:18:18.433Z,3448
2017-10-23T13:19:19.842Z,3916
2017-10-23T13:20:21.245Z,4132
2017-10-23T13:21:22.650Z,4992
2017-10-23T13:22:24.055Z,4316
2017-10-23T13:23:25.461Z,4360
2017-10-23T13:24:26.912Z,4840
2017-10-23T13:25:28.317Z,4716
2017-10-23T13:26:29.723Z,4580
2017-10-23T13:27:31.129Z,4440
2017-10-23T13:28:32.537Z,4212
2017-10-23T13:29:33.940Z,3684
2017-10-23T13:30:35.349Z,3556
2017-10-23T13:31:36.755Z,3516
2017-10-23T13:32:38.156Z,3692
2017-10-23T13:33:39.561Z,3552
2017-10-23T13:34:40.965Z,3548
2017-10-23T13:35:42.367Z,3672
2017-10-23T13:36:43.770Z,3640
2017-10-23T13:37:45.176Z,3572
2017-10-23T13:38:46.578Z,3460
2017-10-23T13:39:47.981Z,3524
2017-10-23T13:40:49.390Z,3424
2017-10-23T13:41:50.799Z,3160
2017-10-23T13:42:52.230Z,3140
2017-10-23T13:43:53.640Z,3396
2017-10-23T13:44:55.045Z,6132
2017-10-23T13:45:56.451Z,6372
2017-10-23T13:46:57.853Z,5600
2017-10-23T13:47:59.260Z,7328
2017-10-23T13:49:00.662Z,7128
2017-10-23T13:50:02.066Z,6988
2017-10-23T13:51:03.471Z,6648
2017-10-23T13:52:04.876Z,3176
2017-10-23T13:53:06.282Z,3440
2017-10-23T13:54:07.689Z,3568
2017-10-23T13:55:09.087Z,4052
2017-10-23T13:56:10.493Z,3856
2017-10-23T13:57:11.893Z,4060
2017-10-23T13:58:13.299Z,4396
2017-10-23T13:59:14.707Z,4940
2017-10-23T14:00:16.127Z,4276
2017-10-23T14:01:17.514Z,4128
2017-10-23T14:02:18.953Z,4008
2017-10-23T14:03:20.357Z,3848
2017-10-23T14:04:21.757Z,4108
2017-10-23T14:05:23.161Z,3380
2017-10-23T14:06:24.570Z,3316
2017-10-23T14:07:25.976Z,3100
2017-10-23T14:08:27.379Z,3100
2017-10-23T14:09:28.788Z,3008
2017-10-23T14:10:30.155Z,4048
2017-10-23T14:11:31.565Z,5208
2017-10-23T14:12:32.969Z,3432
2017-10-23T14:13:34.376Z,4380
2017-10-23T14:14:35.782Z,3448
2017-10-23T14:15:37.188Z,5044
2017-10-23T14:16:38.595Z,4460